createdAt,value
2017-07-27T00:00:07.339Z,0
2017-07-27T00:01:21.960Z,0
2017-07-27T00:02:22.030Z,0
2017-07-27T00:03:22.000Z,0
2017-07-27T00:04:07.434Z,0
2017-07-27T00:05:07.130Z,0
2017-07-27T00:06:07.454Z,0
2017-07-27T00:07:22.110Z,0
2017-07-27T00:08:07.511Z,0
2017-07-27T00:09:07.557Z,0
2017-07-27T00:10:07.569Z,0
2017-07-27T00:11:07.285Z,0
2017-07-27T00:12:22.204Z,0
2017-07-27T00:13:21.911Z,0
2017-07-27T00:14:07.680Z,0
2017-07-27T00:15:07.683Z,0
2017-07-27T00:16:07.713Z,0
2017-07-27T00:17:07.724Z,0
2017-07-27T00:18:07.749Z,0
2017-07-27T00:20:07.496Z,0
2017-07-27T00:21:07.826Z,0
2017-07-27T00:22:07.541Z,0
2017-07-27T00:23:07.870Z,0
2017-07-27T00:24:07.908Z,0
2017-07-27T00:25:07.920Z,0
2017-07-27T00:26:22.544Z,0
2017-07-27T00:27:22.564Z,0
2017-07-27T00:28:07.993Z,0
2017-07-27T00:29:22.591Z,0
2017-07-27T00:30:07.411Z,0
2017-07-27T00:31:22.690Z,0
2017-07-27T00:32:08.087Z,0
2017-07-27T00:33:07.811Z,0
2017-07-27T00:34:08.128Z,0
2017-07-27T00:35:22.759Z,0
2017-07-27T00:36:07.860Z,0
2017-07-27T00:37:07.892Z,0
2017-07-27T00:38:07.906Z,0
2017-07-27T00:39:22.857Z,0
2017-07-27T00:40:08.288Z,0
2017-07-27T00:41:07.996Z,0
2017-07-27T00:42:08.339Z,0
2017-07-27T00:43:22.935Z,0
2017-07-27T00:44:08.376Z,0
2017-07-27T00:45:08.403Z,0
2017-07-27T00:46:08.428Z,0
2017-07-27T00:47:08.423Z,0
2017-07-27T00:48:23.071Z,0
2017-07-27T00:49:08.483Z,0
2017-07-27T00:50:23.125Z,0
2017-07-27T00:52:08.572Z,0
2017-07-27T00:53:08.279Z,0
2017-07-27T00:54:08.598Z,0
2017-07-27T00:55:08.646Z,0
2017-07-27T00:56:08.652Z,0
2017-07-27T00:57:23.301Z,0
2017-07-27T00:58:08.691Z,0
2017-07-27T00:59:08.416Z,0
2017-07-27T01:00:08.435Z,0
2017-07-27T01:01:23.378Z,0
2017-07-27T01:02:08.799Z,0
2017-07-27T01:03:23.431Z,0
2017-07-27T01:04:08.854Z,0
2017-07-27T01:05:08.865Z,0
2017-07-27T01:06:23.518Z,0
2017-07-27T01:08:23.225Z,0
2017-07-27T01:09:08.971Z,0
2017-07-27T01:10:08.987Z,0
2017-07-27T01:11:09.032Z,0
2017-07-27T01:12:09.028Z,0
2017-07-27T01:13:23.675Z,0
2017-07-27T01:14:23.355Z,0
2017-07-27T01:15:23.722Z,0
2017-07-27T01:16:23.719Z,0
2017-07-27T01:17:09.172Z,0
2017-07-27T01:18:09.172Z,0
2017-07-27T01:20:09.226Z,0
2017-07-27T01:21:09.255Z,0
2017-07-27T01:22:09.285Z,0
2017-07-27T01:23:09.298Z,0
2017-07-27T01:24:09.318Z,0
2017-07-27T01:25:09.354Z,0
2017-07-27T01:26:09.719Z,0
2017-07-27T01:27:09.403Z,0
2017-07-27T01:29:09.425Z,0
2017-07-27T01:30:09.479Z,0
2017-07-27T01:31:09.473Z,0
2017-07-27T01:32:09.209Z,0
2017-07-27T01:33:09.540Z,0
2017-07-27T01:34:09.564Z,0
2017-07-27T01:35:09.574Z,0
2017-07-27T01:36:24.197Z,0
2017-07-27T01:37:09.617Z,0
2017-07-27T01:39:09.683Z,0
2017-07-27T01:41:09.517Z,0
2017-07-27T01:43:24.072Z,0
2017-07-27T01:44:24.400Z,0
2017-07-27T01:45:24.111Z,0
2017-07-27T01:46:09.553Z,0
2017-07-27T01:47:09.845Z,0
2017-07-27T01:48:24.500Z,0
2017-07-27T01:49:09.610Z,0
2017-07-27T01:50:24.536Z,0
2017-07-27T01:51:24.560Z,0
2017-07-27T01:52:09.377Z,0
2017-07-27T01:54:39.230Z,0
2017-07-27T01:55:09.748Z,0
2017-07-27T01:56:10.077Z,0
2017-07-27T01:57:10.077Z,0
2017-07-27T01:58:09.830Z,0
2017-07-27T01:59:24.448Z,0
2017-07-27T02:00:09.879Z,0
2017-07-27T02:01:09.885Z,0
2017-07-27T02:02:24.822Z,0
2017-07-27T02:03:10.251Z,0
2017-07-27T02:04:09.943Z,0
2017-07-27T02:05:10.310Z,0
2017-07-27T02:07:10.354Z,0
2017-07-27T02:08:10.347Z,0
2017-07-27T02:09:24.995Z,0
2017-07-27T02:10:25.000Z,0
2017-07-27T02:11:10.453Z,0
2017-07-27T02:12:10.450Z,0
2017-07-27T02:13:10.475Z,0
2017-07-27T02:14:10.187Z,0
2017-07-27T02:15:25.148Z,0
2017-07-27T02:16:10.237Z,0
2017-07-27T02:17:09.990Z,0
2017-07-27T02:18:24.896Z,0
2017-07-27T02:19:10.315Z,0
2017-07-27T02:20:10.637Z,0
2017-07-27T02:21:10.661Z,0
2017-07-27T02:22:10.400Z,0
2017-07-27T02:23:10.720Z,0
2017-07-27T02:24:10.417Z,0
2017-07-27T02:25:10.787Z,0
2017-07-27T02:26:25.074Z,0
2017-07-27T02:27:10.517Z,0
2017-07-27T02:28:10.851Z,0
2017-07-27T02:29:10.909Z,0
2017-07-27T02:30:10.902Z,0
2017-07-27T02:31:10.916Z,0
2017-07-27T02:32:10.947Z,0
2017-07-27T02:33:10.969Z,0
2017-07-27T02:34:10.994Z,0
2017-07-27T02:35:25.599Z,0
2017-07-27T02:36:11.033Z,0
2017-07-27T02:37:11.080Z,0
2017-07-27T02:38:11.088Z,0
2017-07-27T02:39:25.401Z,0
2017-07-27T02:40:11.125Z,0
2017-07-27T02:42:25.791Z,0
2017-07-27T02:44:25.839Z,0
2017-07-27T02:45:25.852Z,0
2017-07-27T02:46:11.237Z,0
2017-07-27T02:47:11.299Z,0
2017-07-27T02:48:25.922Z,0
2017-07-27T02:49:11.037Z,0
2017-07-27T02:50:11.362Z,0
2017-07-27T02:51:11.112Z,0
2017-07-27T02:52:26.013Z,0
2017-07-27T02:53:11.479Z,0
2017-07-27T02:54:11.462Z,0
2017-07-27T02:55:11.450Z,0
2017-07-27T02:56:11.209Z,0
2017-07-27T02:57:11.534Z,0
2017-07-27T02:58:11.578Z,0
2017-07-27T02:59:11.559Z,0
2017-07-27T03:00:11.338Z,0
2017-07-27T03:01:11.608Z,0
2017-07-27T03:02:11.645Z,0
2017-07-27T03:03:11.665Z,0
2017-07-27T03:05:11.697Z,0
2017-07-27T03:06:12.046Z,0
2017-07-27T03:07:11.756Z,0
2017-07-27T03:08:12.061Z,0
2017-07-27T03:09:11.819Z,0
2017-07-27T03:10:11.588Z,0
2017-07-27T03:11:11.849Z,0
2017-07-27T03:12:11.589Z,0
2017-07-27T03:13:26.489Z,0
2017-07-27T03:14:26.540Z,0
2017-07-27T03:15:11.979Z,0
2017-07-27T03:16:26.571Z,0
2017-07-27T03:17:12.057Z,0
2017-07-27T03:18:12.021Z,0
2017-07-27T03:19:12.064Z,0
2017-07-27T03:20:12.050Z,0
2017-07-27T03:22:12.148Z,0
2017-07-27T03:23:26.745Z,0
2017-07-27T03:24:11.842Z,0
2017-07-27T03:25:12.183Z,0
2017-07-27T03:26:12.226Z,0
2017-07-27T03:27:12.245Z,0
2017-07-27T03:28:11.971Z,0
2017-07-27T03:29:26.888Z,0
2017-07-27T03:30:12.331Z,0
2017-07-27T03:31:26.935Z,0
2017-07-27T03:32:11.761Z,0
2017-07-27T03:33:26.999Z,5
2017-07-27T03:34:12.407Z,5
2017-07-27T03:35:11.800Z,5
2017-07-27T03:36:27.054Z,5
2017-07-27T03:37:12.475Z,5
2017-07-27T03:38:27.117Z,5
2017-07-27T03:39:12.579Z,5
2017-07-27T03:41:12.592Z,5
2017-07-27T03:42:12.275Z,5
2017-07-27T03:43:27.233Z,5
2017-07-27T03:44:12.027Z,10
2017-07-27T03:45:26.963Z,10
2017-07-27T03:46:12.381Z,10
2017-07-27T03:47:12.395Z,10
2017-07-27T03:48:12.759Z,10
2017-07-27T03:49:12.749Z,15
2017-07-27T03:50:12.812Z,15
2017-07-27T03:51:12.506Z,15
2017-07-27T03:52:12.548Z,15
2017-07-27T03:54:12.902Z,15
2017-07-27T03:55:27.197Z,15
2017-07-27T03:56:12.654Z,20
2017-07-27T03:57:12.643Z,20
2017-07-27T03:58:12.962Z,20
2017-07-27T03:59:27.611Z,20
2017-07-27T04:00:12.725Z,20
2017-07-27T04:01:42.242Z,20
2017-07-27T04:02:13.072Z,20
2017-07-27T04:03:13.117Z,20
2017-07-27T04:04:13.104Z,20
2017-07-27T04:05:12.845Z,20
2017-07-27T04:06:13.172Z,20
2017-07-27T04:07:13.192Z,20
2017-07-27T04:08:27.814Z,20
2017-07-27T04:09:13.248Z,20
2017-07-27T04:10:13.279Z,25
2017-07-27T04:11:13.295Z,25
2017-07-27T04:12:13.306Z,25
2017-07-27T04:13:13.344Z,25
2017-07-27T04:14:13.043Z,25
2017-07-27T04:15:13.395Z,30
2017-07-27T04:16:27.996Z,30
2017-07-27T04:17:13.442Z,35
2017-07-27T04:18:13.443Z,40
2017-07-27T04:19:13.476Z,40
2017-07-27T04:20:28.108Z,45
2017-07-27T04:21:13.525Z,45
2017-07-27T04:22:28.150Z,45
2017-07-27T04:23:13.554Z,45
2017-07-27T04:24:28.211Z,50
2017-07-27T04:25:27.929Z,50
2017-07-27T04:26:13.671Z,50
2017-07-27T04:27:28.264Z,50
2017-07-27T04:28:27.997Z,55
2017-07-27T04:29:13.705Z,55
2017-07-27T04:30:13.756Z,55
2017-07-27T04:32:28.077Z,60
2017-07-27T04:33:13.205Z,60
2017-07-27T04:34:13.512Z,60
2017-07-27T04:35:28.175Z,65
2017-07-27T04:37:13.930Z,75
2017-07-27T04:38:13.952Z,80
2017-07-27T04:39:13.322Z,85
2017-07-27T04:40:13.666Z,95
2017-07-27T04:41:13.680Z,100
2017-07-27T04:42:13.409Z,105
2017-07-27T04:43:13.728Z,110
2017-07-27T04:44:28.055Z,115
2017-07-27T04:45:13.807Z,120
2017-07-27T04:46:28.411Z,125
2017-07-27T04:47:13.824Z,120
2017-07-27T04:48:28.445Z,125
2017-07-27T04:49:13.886Z,130
2017-07-27T04:50:14.247Z,130
2017-07-27T04:51:14.256Z,125
2017-07-27T04:52:13.652Z,130
2017-07-27T04:54:28.346Z,130
2017-07-27T04:55:28.951Z,130
2017-07-27T04:56:14.055Z,135
2017-07-27T04:57:29.001Z,145
2017-07-27T04:58:14.094Z,135
2017-07-27T04:59:28.719Z,100
2017-07-27T05:00:14.462Z,95
2017-07-27T05:01:13.880Z,100
2017-07-27T05:02:14.218Z,100
2017-07-27T05:03:14.235Z,100
2017-07-27T05:04:28.850Z,95
2017-07-27T05:05:28.848Z,100
2017-07-27T05:06:14.307Z,100
2017-07-27T05:08:14.658Z,115
2017-07-27T05:09:14.690Z,120
2017-07-27T05:10:28.991Z,140
2017-07-27T05:11:29.322Z,175
2017-07-27T05:12:14.767Z,200
2017-07-27T05:13:14.829Z,200
2017-07-27T05:14:14.480Z,195
2017-07-27T05:15:14.834Z,220
2017-07-27T05:16:14.836Z,260
2017-07-27T05:17:14.876Z,420
2017-07-27T05:18:14.886Z,565
2017-07-27T05:19:14.603Z,1265
2017-07-27T05:20:29.549Z,1225
2017-07-27T05:21:14.643Z,780
2017-07-27T05:23:14.707Z,325
2017-07-27T05:24:15.030Z,385
2017-07-27T05:25:29.682Z,285
2017-07-27T05:26:29.396Z,295
2017-07-27T05:27:15.106Z,305
2017-07-27T05:28:15.157Z,505
2017-07-27T05:29:14.860Z,620
2017-07-27T05:30:15.212Z,825
2017-07-27T05:31:29.818Z,1205
2017-07-27T05:32:15.255Z,1355
2017-07-27T05:33:15.300Z,1345
2017-07-27T05:34:15.011Z,1350
2017-07-27T05:35:15.331Z,1375
2017-07-27T05:36:44.554Z,1355
2017-07-27T05:37:29.991Z,1080
2017-07-27T05:38:14.812Z,1310
2017-07-27T05:39:15.159Z,1380
2017-07-27T05:40:15.180Z,1045
2017-07-27T05:41:15.521Z,790
2017-07-27T05:42:15.524Z,1370
2017-07-27T05:43:15.550Z,1330
2017-07-27T05:44:15.288Z,1325
2017-07-27T05:45:29.925Z,1310
2017-07-27T05:46:29.955Z,1370
2017-07-27T05:47:15.687Z,1440
2017-07-27T05:48:15.423Z,815
2017-07-27T05:49:15.736Z,480
2017-07-27T05:50:15.494Z,840
2017-07-27T05:51:30.416Z,1305
2017-07-27T05:52:15.903Z,1135
2017-07-27T05:53:15.869Z,720
2017-07-27T05:54:15.919Z,500
2017-07-27T05:55:15.965Z,425
2017-07-27T05:56:15.697Z,405
2017-07-27T05:57:16.009Z,395
2017-07-27T05:58:15.433Z,450
2017-07-27T05:59:16.077Z,570
2017-07-27T06:01:16.148Z,1070
2017-07-27T06:02:15.573Z,1425
2017-07-27T06:03:16.238Z,1240
2017-07-27T06:04:15.316Z,1300
2017-07-27T06:05:16.291Z,1345
2017-07-27T06:06:16.322Z,1280
2017-07-27T06:07:16.325Z,1165
2017-07-27T06:08:30.980Z,1345
2017-07-27T06:09:16.389Z,1230
2017-07-27T06:10:16.143Z,1255
2017-07-27T06:11:16.458Z,1280
2017-07-27T06:12:16.518Z,810
2017-07-27T06:13:16.534Z,1065
2017-07-27T06:14:16.580Z,1380
2017-07-27T06:15:16.593Z,1335
2017-07-27T06:16:16.343Z,1300
2017-07-27T06:17:16.057Z,1340
2017-07-27T06:18:16.395Z,1295
2017-07-27T06:19:16.431Z,1090
2017-07-27T06:20:16.806Z,530
2017-07-27T06:21:16.497Z,585
2017-07-27T06:22:16.848Z,465
2017-07-27T06:23:31.464Z,735
2017-07-27T06:25:16.646Z,1400
2017-07-27T06:26:16.969Z,1490
2017-07-27T06:27:17.032Z,950
2017-07-27T06:28:17.050Z,620
2017-07-27T06:30:17.115Z,1210
2017-07-27T06:32:17.216Z,1350
2017-07-27T06:33:17.197Z,1300
2017-07-27T06:34:31.558Z,1205
2017-07-27T06:35:16.974Z,945
2017-07-27T06:36:17.038Z,950
2017-07-27T06:37:17.063Z,1020
2017-07-27T06:38:17.107Z,845
2017-07-27T06:39:32.013Z,715
2017-07-27T06:40:17.141Z,1020
2017-07-27T06:41:17.510Z,605
2017-07-27T06:42:17.534Z,810
2017-07-27T06:43:16.951Z,680
2017-07-27T06:44:17.003Z,630
2017-07-27T06:45:17.353Z,870
2017-07-27T06:46:17.715Z,985
2017-07-27T06:47:17.708Z,1065
2017-07-27T06:48:17.780Z,1255
2017-07-27T06:49:17.796Z,920
2017-07-27T06:50:17.832Z,950
2017-07-27T06:51:17.865Z,675
2017-07-27T06:52:17.912Z,930
2017-07-27T06:54:17.023Z,1025
2017-07-27T06:55:32.592Z,605
2017-07-27T06:56:17.731Z,1010
2017-07-27T06:58:17.775Z,550
2017-07-27T06:59:17.846Z,435
2017-07-27T07:00:18.169Z,380
2017-07-27T07:01:17.914Z,500
2017-07-27T07:02:18.231Z,465
2017-07-27T07:03:32.552Z,860
2017-07-27T07:04:18.009Z,905
2017-07-27T07:05:18.029Z,905
2017-07-27T07:06:18.389Z,875
2017-07-27T07:07:18.089Z,755
2017-07-27T07:08:18.507Z,725
2017-07-27T07:09:18.495Z,545
2017-07-27T07:10:18.526Z,635
2017-07-27T07:11:33.172Z,685
2017-07-27T07:12:18.611Z,675
2017-07-27T07:13:18.626Z,745
2017-07-27T07:14:32.964Z,650
2017-07-27T07:15:18.690Z,575
2017-07-27T07:17:18.760Z,610
2017-07-27T07:18:18.809Z,575
2017-07-27T07:19:18.834Z,580
2017-07-27T07:20:18.869Z,595
2017-07-27T07:21:18.927Z,505
2017-07-27T07:22:33.543Z,680
2017-07-27T07:23:19.010Z,650
2017-07-27T07:24:19.002Z,1070
2017-07-27T07:25:19.080Z,1290
2017-07-27T07:26:33.380Z,1520
2017-07-27T07:27:18.817Z,1460
2017-07-27T07:28:19.147Z,1110
2017-07-27T07:29:18.893Z,895
2017-07-27T07:30:33.531Z,1095
2017-07-27T07:31:19.273Z,1175
2017-07-27T07:32:19.293Z,1300
2017-07-27T07:33:19.323Z,1260
2017-07-27T07:34:19.381Z,1200
2017-07-27T07:35:18.789Z,1190
2017-07-27T07:37:19.488Z,1115
2017-07-27T07:38:19.513Z,1110
2017-07-27T07:39:18.640Z,1155
2017-07-27T07:41:19.619Z,1195
2017-07-27T07:42:19.659Z,1120
2017-07-27T07:43:19.401Z,1085
2017-07-27T07:44:19.751Z,1070
2017-07-27T07:45:19.787Z,1065
2017-07-27T07:46:19.844Z,1040
2017-07-27T07:47:19.846Z,1000
2017-07-27T07:48:19.901Z,985
2017-07-27T07:49:34.548Z,1020
2017-07-27T07:50:34.563Z,1000
2017-07-27T07:51:34.611Z,980
2017-07-27T07:53:20.104Z,960
2017-07-27T07:55:20.150Z,950
2017-07-27T07:56:34.766Z,930
2017-07-27T07:57:19.891Z,940
2017-07-27T07:58:34.901Z,940
2017-07-27T07:59:20.347Z,930
2017-07-27T08:00:20.340Z,895
2017-07-27T08:01:20.065Z,880
2017-07-27T08:02:20.107Z,860
2017-07-27T08:04:34.783Z,855
2017-07-27T08:05:20.214Z,830
2017-07-27T08:06:20.578Z,800
2017-07-27T08:07:20.590Z,790
2017-07-27T08:08:20.326Z,780
2017-07-27T08:09:35.269Z,785
2017-07-27T08:10:20.707Z,770
2017-07-27T08:11:35.354Z,725
2017-07-27T08:12:20.784Z,720
2017-07-27T08:14:35.136Z,720
2017-07-27T08:15:20.599Z,705
2017-07-27T08:16:20.611Z,735
2017-07-27T08:17:20.366Z,725
2017-07-27T08:18:20.698Z,700
2017-07-27T08:20:35.672Z,690
2017-07-27T08:21:35.415Z,685
2017-07-27T08:22:21.167Z,665
2017-07-27T08:23:21.181Z,645
2017-07-27T08:25:21.284Z,625
2017-07-27T08:26:21.291Z,610
2017-07-27T08:27:35.938Z,595
2017-07-27T08:28:21.382Z,590
2017-07-27T08:29:21.438Z,575
2017-07-27T08:30:50.644Z,575
2017-07-27T08:31:21.488Z,565
2017-07-27T08:33:21.580Z,555
2017-07-27T08:34:21.597Z,545
2017-07-27T08:35:21.650Z,535
2017-07-27T08:36:21.703Z,525
2017-07-27T08:37:21.418Z,515
2017-07-27T08:38:21.409Z,510
2017-07-27T08:39:36.392Z,510
2017-07-27T08:40:21.820Z,510
2017-07-27T08:41:21.866Z,510
2017-07-27T08:42:21.585Z,495
2017-07-27T08:43:21.934Z,485
2017-07-27T08:44:36.564Z,485
2017-07-27T08:45:21.678Z,485
2017-07-27T08:46:36.641Z,490
2017-07-27T08:47:21.766Z,495
2017-07-27T08:48:21.810Z,490
2017-07-27T08:49:22.149Z,490
2017-07-27T08:50:22.209Z,485
2017-07-27T08:51:36.828Z,265
2017-07-27T08:52:22.250Z,345
2017-07-27T08:53:22.318Z,495
2017-07-27T08:54:22.326Z,490
2017-07-27T08:55:36.988Z,500
2017-07-27T08:56:22.412Z,505
2017-07-27T08:57:22.458Z,500
2017-07-27T08:58:22.497Z,505
2017-07-27T08:59:22.526Z,500
2017-07-27T09:00:22.559Z,500
2017-07-27T09:01:37.191Z,505
2017-07-27T09:02:22.302Z,505
2017-07-27T09:03:22.681Z,505
2017-07-27T09:04:22.697Z,500
2017-07-27T09:06:22.781Z,395
2017-07-27T09:07:22.791Z,515
2017-07-27T09:08:22.524Z,510
2017-07-27T09:09:22.872Z,250
2017-07-27T09:10:22.305Z,220
2017-07-27T09:11:37.565Z,220
2017-07-27T09:12:22.998Z,235
2017-07-27T09:13:22.409Z,490
2017-07-27T09:14:23.072Z,485
2017-07-27T09:15:22.779Z,470
2017-07-27T09:17:22.883Z,435
2017-07-27T09:18:23.212Z,405
2017-07-27T09:19:37.857Z,220
2017-07-27T09:20:37.562Z,390
2017-07-27T09:21:37.613Z,300
2017-07-27T09:22:37.648Z,405
2017-07-27T09:23:23.358Z,245
2017-07-27T09:24:23.433Z,225
2017-07-27T09:25:23.466Z,380
2017-07-27T09:26:23.501Z,385
2017-07-27T09:27:37.819Z,280
2017-07-27T09:28:37.859Z,380
2017-07-27T09:29:38.201Z,380
2017-07-27T09:30:37.930Z,380
2017-07-27T09:31:23.660Z,380
2017-07-27T09:32:23.703Z,380
2017-07-27T09:33:38.328Z,290
2017-07-27T09:34:38.356Z,280
2017-07-27T09:35:38.417Z,265
2017-07-27T09:36:23.837Z,415
2017-07-27T09:37:23.884Z,270
2017-07-27T09:38:23.886Z,295
2017-07-27T09:39:23.956Z,305
2017-07-27T09:40:23.968Z,275
2017-07-27T09:41:24.021Z,275
2017-07-27T09:42:38.346Z,235
2017-07-27T09:43:24.073Z,230
2017-07-27T09:44:23.796Z,225
2017-07-27T09:45:23.849Z,225
2017-07-27T09:46:24.181Z,230
2017-07-27T09:47:23.910Z,235
2017-07-27T09:48:24.231Z,245
2017-07-27T09:49:38.890Z,255
2017-07-27T09:50:23.989Z,260
2017-07-27T09:51:24.356Z,280
2017-07-27T09:52:24.388Z,285
2017-07-27T09:53:24.424Z,285
2017-07-27T09:54:24.136Z,295
2017-07-27T09:55:24.471Z,300
2017-07-27T09:56:24.515Z,315
2017-07-27T09:57:24.253Z,310
2017-07-27T09:58:24.583Z,335
2017-07-27T09:59:24.310Z,315
2017-07-27T10:00:24.634Z,320
2017-07-27T10:01:24.689Z,310
2017-07-27T10:02:24.415Z,310
2017-07-27T10:03:24.761Z,315
2017-07-27T10:04:24.781Z,310
2017-07-27T10:05:39.436Z,310
2017-07-27T10:06:24.842Z,340
2017-07-27T10:08:24.909Z,320
2017-07-27T10:09:24.628Z,315
2017-07-27T10:10:39.280Z,315
2017-07-27T10:11:39.630Z,325
2017-07-27T10:12:25.048Z,335
2017-07-27T10:13:25.062Z,400
2017-07-27T10:14:25.099Z,390
2017-07-27T10:15:25.155Z,395
2017-07-27T10:16:39.774Z,460
2017-07-27T10:17:25.422Z,395
2017-07-27T10:18:39.523Z,425
2017-07-27T10:19:25.284Z,375
2017-07-27T10:20:24.684Z,420
2017-07-27T10:21:39.931Z,355
2017-07-27T10:22:25.059Z,380
2017-07-27T10:23:25.402Z,415
2017-07-27T10:24:40.039Z,375
2017-07-27T10:25:25.497Z,390
2017-07-27T10:26:25.495Z,425
2017-07-27T10:27:25.552Z,380
2017-07-27T10:28:25.252Z,350
2017-07-27T10:29:25.309Z,345
2017-07-27T10:30:25.328Z,340
2017-07-27T10:31:25.362Z,330
2017-07-27T10:32:25.693Z,325
2017-07-27T10:33:25.446Z,325
2017-07-27T10:34:25.473Z,320
2017-07-27T10:35:25.803Z,315
2017-07-27T10:36:40.431Z,310
2017-07-27T10:37:25.859Z,310
2017-07-27T10:38:25.915Z,310
2017-07-27T10:39:40.206Z,305
2017-07-27T10:41:40.604Z,310
2017-07-27T10:42:25.710Z,315
2017-07-27T10:43:25.756Z,320
2017-07-27T10:44:40.685Z,325
2017-07-27T10:46:40.749Z,340
2017-07-27T10:47:26.211Z,350
2017-07-27T10:48:40.823Z,330
2017-07-27T10:49:40.872Z,335
2017-07-27T10:50:26.280Z,330
2017-07-27T10:51:26.323Z,325
2017-07-27T10:52:40.651Z,320
2017-07-27T10:53:26.376Z,315
2017-07-27T10:54:26.418Z,300
2017-07-27T10:55:26.449Z,295
2017-07-27T10:56:40.788Z,280
2017-07-27T10:57:26.518Z,265
2017-07-27T10:58:26.566Z,255
2017-07-27T10:59:26.577Z,245
2017-07-27T11:00:26.626Z,230
2017-07-27T11:01:26.627Z,215
2017-07-27T11:02:26.685Z,210
2017-07-27T11:03:26.723Z,205
2017-07-27T11:04:41.355Z,205
2017-07-27T11:05:26.784Z,205
2017-07-27T11:06:26.799Z,200
2017-07-27T11:07:26.840Z,200
2017-07-27T11:08:41.479Z,205
2017-07-27T11:09:26.920Z,205
2017-07-27T11:10:26.914Z,205
2017-07-27T11:11:26.984Z,200
2017-07-27T11:12:26.992Z,200
2017-07-27T11:13:27.044Z,200
2017-07-27T11:14:41.655Z,195
2017-07-27T11:15:27.110Z,190
2017-07-27T11:16:41.735Z,185
2017-07-27T11:17:41.761Z,190
2017-07-27T11:18:27.176Z,190
2017-07-27T11:19:27.232Z,190
2017-07-27T11:20:41.865Z,190
2017-07-27T11:21:27.291Z,185
2017-07-27T11:22:27.317Z,180
2017-07-27T11:23:27.040Z,170
2017-07-27T11:24:41.975Z,155
2017-07-27T11:25:27.383Z,150
2017-07-27T11:26:27.475Z,155
2017-07-27T11:27:27.454Z,140
2017-07-27T11:28:42.104Z,130
2017-07-27T11:30:27.568Z,115
2017-07-27T11:32:27.631Z,105
2017-07-27T11:33:27.351Z,95
2017-07-27T11:34:27.383Z,95
2017-07-27T11:35:27.398Z,95
2017-07-27T11:36:41.725Z,100
2017-07-27T11:37:27.780Z,100
2017-07-27T11:38:27.794Z,100
2017-07-27T11:39:27.860Z,100
2017-07-27T11:40:57.060Z,100
2017-07-27T11:41:27.912Z,100
2017-07-27T11:42:27.908Z,95
2017-07-27T11:43:27.991Z,95
2017-07-27T11:44:27.664Z,95
2017-07-27T11:45:42.622Z,95
2017-07-27T11:46:28.042Z,95
2017-07-27T11:47:28.083Z,95
2017-07-27T11:48:27.808Z,95
2017-07-27T11:49:42.752Z,95
2017-07-27T11:50:28.163Z,95
2017-07-27T11:51:28.203Z,95
2017-07-27T11:53:42.838Z,100
2017-07-27T11:54:28.298Z,105
2017-07-27T11:55:28.304Z,105
2017-07-27T11:56:42.950Z,110
2017-07-27T11:57:28.394Z,115
2017-07-27T11:58:43.006Z,125
2017-07-27T11:59:28.116Z,130
2017-07-27T12:00:28.459Z,140
2017-07-27T12:02:28.536Z,155
2017-07-27T12:03:28.558Z,165
2017-07-27T12:04:28.267Z,170
2017-07-27T12:05:28.630Z,165
2017-07-27T12:06:43.234Z,155
2017-07-27T12:07:28.642Z,145
2017-07-27T12:08:28.387Z,135
2017-07-27T12:09:28.732Z,120
2017-07-27T12:10:28.739Z,110
2017-07-27T12:11:43.387Z,100
2017-07-27T12:12:28.805Z,95
2017-07-27T12:13:43.484Z,85
2017-07-27T12:14:28.562Z,85
2017-07-27T12:15:28.910Z,80
2017-07-27T12:16:28.611Z,85
2017-07-27T12:17:28.946Z,85
2017-07-27T12:18:28.990Z,90
2017-07-27T12:19:29.032Z,95
2017-07-27T12:20:29.076Z,100
2017-07-27T12:21:29.086Z,105
2017-07-27T12:22:43.734Z,100
2017-07-27T12:23:29.120Z,100
2017-07-27T12:24:28.865Z,95
2017-07-27T12:25:29.198Z,90
2017-07-27T12:26:28.923Z,90
2017-07-27T12:27:29.250Z,90
2017-07-27T12:28:43.880Z,85
2017-07-27T12:29:29.298Z,85
2017-07-27T12:30:43.910Z,75
2017-07-27T12:31:29.361Z,75
2017-07-27T12:32:29.068Z,70
2017-07-27T12:33:29.439Z,65
2017-07-27T12:34:29.447Z,60
2017-07-27T12:35:29.178Z,60
2017-07-27T12:36:29.177Z,60
2017-07-27T12:37:29.239Z,60
2017-07-27T12:38:29.266Z,55
2017-07-27T12:39:29.586Z,55
2017-07-27T12:40:44.197Z,60
2017-07-27T12:41:29.352Z,60
2017-07-27T12:42:29.654Z,60
2017-07-27T12:43:58.912Z,60
2017-07-27T12:44:29.446Z,60
2017-07-27T12:45:29.462Z,65
2017-07-27T12:46:29.461Z,65
2017-07-27T12:47:29.189Z,70
2017-07-27T12:48:29.546Z,75
2017-07-27T12:49:29.874Z,75
2017-07-27T12:50:29.611Z,75
2017-07-27T12:51:29.928Z,75
2017-07-27T12:52:29.643Z,75
2017-07-27T12:54:29.730Z,70
2017-07-27T12:55:29.421Z,70
2017-07-27T12:56:29.770Z,70
2017-07-27T12:58:29.813Z,80
2017-07-27T12:59:44.752Z,80
2017-07-27T13:00:44.464Z,80
2017-07-27T13:01:29.941Z,75
2017-07-27T13:02:29.609Z,75
2017-07-27T13:03:29.687Z,75
2017-07-27T13:04:29.990Z,80
2017-07-27T13:05:30.315Z,90
2017-07-27T13:06:29.741Z,90
2017-07-27T13:07:29.765Z,95
2017-07-27T13:08:30.079Z,85
2017-07-27T13:09:59.323Z,75
2017-07-27T13:10:45.038Z,75
2017-07-27T13:11:29.893Z,75
2017-07-27T13:12:30.506Z,90
2017-07-27T13:13:30.559Z,105
2017-07-27T13:14:30.259Z,105
2017-07-27T13:15:44.886Z,110
2017-07-27T13:16:30.627Z,110
2017-07-27T13:17:30.039Z,115
2017-07-27T13:18:44.970Z,115
2017-07-27T13:19:30.718Z,115
2017-07-27T13:20:30.415Z,115
2017-07-27T13:21:30.760Z,115
2017-07-27T13:22:30.195Z,110
2017-07-27T13:24:45.453Z,105
2017-07-27T13:25:30.875Z,105
2017-07-27T13:26:30.902Z,100
2017-07-27T13:27:30.925Z,100
2017-07-27T13:28:30.963Z,95
2017-07-27T13:29:30.983Z,90
2017-07-27T13:30:30.706Z,90
2017-07-27T13:31:45.669Z,80
2017-07-27T13:32:45.372Z,85
2017-07-27T13:35:31.135Z,85
2017-07-27T13:36:31.191Z,85
2017-07-27T13:37:45.481Z,90
2017-07-27T13:38:31.209Z,100
2017-07-27T13:39:31.269Z,105
2017-07-27T13:40:45.571Z,100
2017-07-27T13:41:31.336Z,100
2017-07-27T13:42:31.312Z,85
2017-07-27T13:43:45.972Z,70
2017-07-27T13:44:31.382Z,70
2017-07-27T13:45:31.102Z,70
2017-07-27T13:46:46.050Z,50
2017-07-27T13:47:31.478Z,40
2017-07-27T13:48:31.509Z,35
2017-07-27T13:49:31.557Z,30
2017-07-27T13:50:31.560Z,30
2017-07-27T13:51:31.261Z,30
2017-07-27T13:52:31.315Z,35
2017-07-27T13:53:31.618Z,45
2017-07-27T13:54:31.367Z,50
2017-07-27T13:55:31.607Z,65
2017-07-27T13:56:31.103Z,75
2017-07-27T13:57:31.425Z,80
2017-07-27T13:58:31.784Z,80
2017-07-27T13:59:31.503Z,85
2017-07-27T14:00:31.826Z,95
2017-07-27T14:01:46.442Z,110
2017-07-27T14:02:31.585Z,120
2017-07-27T14:03:31.910Z,130
2017-07-27T14:04:31.640Z,135
2017-07-27T14:05:31.652Z,140
2017-07-27T14:07:31.757Z,135
2017-07-27T14:08:46.633Z,135
2017-07-27T14:09:32.093Z,140
2017-07-27T14:10:32.108Z,140
2017-07-27T14:11:31.849Z,125
2017-07-27T14:12:46.740Z,100
2017-07-27T14:13:31.889Z,90
2017-07-27T14:14:32.181Z,85
2017-07-27T14:15:46.868Z,90
2017-07-27T14:16:31.963Z,95
2017-07-27T14:17:46.902Z,90
2017-07-27T14:18:46.942Z,85
2017-07-27T14:20:31.765Z,80
2017-07-27T14:21:31.769Z,85
2017-07-27T14:22:31.813Z,95
2017-07-27T14:23:32.466Z,105
2017-07-27T14:24:32.498Z,125
2017-07-27T14:25:32.512Z,150
2017-07-27T14:26:32.541Z,170
2017-07-27T14:27:32.286Z,165
2017-07-27T14:28:32.289Z,170
2017-07-27T14:29:32.308Z,185
2017-07-27T14:30:32.354Z,195
2017-07-27T14:31:32.358Z,205
2017-07-27T14:32:32.719Z,225
2017-07-27T14:33:32.738Z,240
2017-07-27T14:34:47.366Z,235
2017-07-27T14:35:32.496Z,230
2017-07-27T14:36:32.502Z,230
2017-07-27T14:37:32.526Z,215
2017-07-27T14:38:32.233Z,205
2017-07-27T14:39:32.287Z,200
2017-07-27T14:40:47.532Z,195
2017-07-27T14:41:32.663Z,195
2017-07-27T14:42:32.666Z,190
2017-07-27T14:43:47.612Z,195
2017-07-27T14:44:32.730Z,200
2017-07-27T14:45:32.740Z,205
2017-07-27T14:46:32.796Z,215
2017-07-27T14:47:32.855Z,225
2017-07-27T14:48:32.858Z,220
2017-07-27T14:50:47.810Z,255
2017-07-27T14:51:33.224Z,265
2017-07-27T14:52:33.261Z,245
2017-07-27T14:54:02.495Z,205
2017-07-27T14:54:33.011Z,185
2017-07-27T14:56:33.386Z,150
2017-07-27T14:57:33.396Z,145
2017-07-27T14:58:33.451Z,185